sensor_id;sensor_type;location;lat;lon;timestamp;pressure;altitude;pressure_sealevel;temperature;humidity
71948;BME280;63257;55.082;38.772;2022-10-17T00:01:04;101310.91;;;4.92;63.66
71948;BME280;63257;55.082;38.772;2022-10-17T00:03:31;101299.56;;;4.90;63.88
71948;BME280;63257;55.082;38.772;2022-10-17T00:05:57;101303.03;;;4.93;64.31
71948;BME280;63257;55.082;38.772;2022-10-17T00:12:35;101290.06;;;4.81;64.38
71948;BME280;63257;55.082;38.772;2022-10-17T00:15:03;101289.16;;;4.81;64.43
71948;BME280;63257;55.082;38.772;2022-10-17T00:17:29;101283.09;;;4.77;64.75
71948;BME280;63257;55.082;38.772;2022-10-17T00:23:36;101273.56;;;4.67;64.93
71948;BME280;63257;55.082;38.772;2022-10-17T00:26:33;101284.03;;;4.70;65.02
71948;BME280;63257;55.082;38.772;2022-10-17T00:28:58;101279.72;;;4.66;65.01
71948;BME280;63257;55.082;38.772;2022-10-17T00:34:40;101279.72;;;4.63;65.56
71948;BME280;63257;55.082;38.772;2022-10-17T00:37:06;101271.94;;;4.56;65.57
71948;BME280;63257;55.082;38.772;2022-10-17T00:39:31;101284.09;;;4.56;65.83
71948;BME280;63257;55.082;38.772;2022-10-17T00:41:57;101278.94;;;4.50;65.99
71948;BME280;63257;55.082;38.772;2022-10-17T00:48:44;101262.47;;;4.34;66.72
71948;BME280;63257;55.082;38.772;2022-10-17T00:51:10;101262.53;;;4.28;66.60
71948;BME280;63257;55.082;38.772;2022-10-17T00:53:37;101277.34;;;4.30;66.59
71948;BME280;63257;55.082;38.772;2022-10-17T00:56:14;101271.25;;;4.23;67.48
71948;BME280;63257;55.082;38.772;2022-10-17T00:58:42;101250.47;;;4.03;67.27
71948;BME280;63257;55.082;38.772;2022-10-17T01:01:08;101266.09;;;4.13;68.00
71948;BME280;63257;55.082;38.772;2022-10-17T01:03:36;101256.53;;;4.08;67.71
71948;BME280;63257;55.082;38.772;2022-10-17T01:10:15;101259.16;;;4.07;68.49
71948;BME280;63257;55.082;38.772;2022-10-17T01:27:28;101254.84;;;3.98;69.29
71948;BME280;63257;55.082;38.772;2022-10-17T01:32:48;101240.94;;;3.95;68.95
71948;BME280;63257;55.082;38.772;2022-10-17T01:35:31;101228.75;;;3.94;69.01
71948;BME280;63257;55.082;38.772;2022-10-17T01:42:27;101232.25;;;3.89;69.09
71948;BME280;63257;55.082;38.772;2022-10-17T01:49:05;101226.16;;;3.86;69.37
71948;BME280;63257;55.082;38.772;2022-10-17T01:51:38;101218.41;;;3.77;69.53
71948;BME280;63257;55.082;38.772;2022-10-17T01:56:39;101189.69;;;3.70;69.75
71948;BME280;63257;55.082;38.772;2022-10-17T01:59:16;101197.44;;;3.87;69.85
71948;BME280;63257;55.082;38.772;2022-10-17T02:01:50;101197.44;;;3.84;69.53
71948;BME280;63257;55.082;38.772;2022-10-17T02:04:17;101187.03;;;3.81;69.90
71948;BME280;63257;55.082;38.772;2022-10-17T02:06:43;101188.75;;;3.82;69.94
71948;BME280;63257;55.082;38.772;2022-10-17T02:19:01;101167.00;;;3.80;70.71
71948;BME280;63257;55.082;38.772;2022-10-17T02:26:43;101186.13;;;3.87;70.87
71948;BME280;63257;55.082;38.772;2022-10-17T02:29:20;101177.44;;;3.83;71.21
71948;BME280;63257;55.082;38.772;2022-10-17T02:32:06;101178.28;;;3.85;71.08
71948;BME280;63257;55.082;38.772;2022-10-17T02:34:41;101177.44;;;3.83;70.85
71948;BME280;63257;55.082;38.772;2022-10-17T02:37:09;101169.59;;;3.86;70.45
71948;BME280;63257;55.082;38.772;2022-10-17T02:39:38;101162.59;;;3.87;70.18
71948;BME280;63257;55.082;38.772;2022-10-17T02:46:12;101167.81;;;3.88;69.62
71948;BME280;63257;55.082;38.772;2022-10-17T02:53:09;101154.78;;;3.85;69.63
71948;BME280;63257;55.082;38.772;2022-10-17T02:55:48;101154.75;;;3.90;69.70
71948;BME280;63257;55.082;38.772;2022-10-17T02:58:24;101159.09;;;3.93;70.09
71948;BME280;63257;55.082;38.772;2022-10-17T03:00:52;101128.72;;;3.79;69.60
71948;BME280;63257;55.082;38.772;2022-10-17T03:03:23;101143.47;;;3.86;69.72
71948;BME280;63257;55.082;38.772;2022-10-17T03:05:50;101129.50;;;3.90;69.23
71948;BME280;63257;55.082;38.772;2022-10-17T03:08:17;101139.91;;;4.00;69.29
71948;BME280;63257;55.082;38.772;2022-10-17T03:13:59;101142.47;;;4.06;69.33
71948;BME280;63257;55.082;38.772;2022-10-17T03:16:26;101147.69;;;4.06;68.85
71948;BME280;63257;55.082;38.772;2022-10-17T03:18:55;101127.72;;;3.99;69.25
71948;BME280;63257;55.082;38.772;2022-10-17T03:21:21;101125.94;;;4.04;69.02
71948;BME280;63257;55.082;38.772;2022-10-17T03:23:47;101119.81;;;4.08;69.33
71948;BME280;63257;55.082;38.772;2022-10-17T03:26:14;101124.13;;;4.11;68.91
71948;BME280;63257;55.082;38.772;2022-10-17T03:33:06;101114.56;;;4.10;69.12
71948;BME280;63257;55.082;38.772;2022-10-17T03:35:32;101125.03;;;4.10;69.60
71948;BME280;63257;55.082;38.772;2022-10-17T03:37:58;101100.75;;;3.94;69.70
71948;BME280;63257;55.082;38.772;2022-10-17T03:40:54;101128.56;;;4.04;69.66
71948;BME280;63257;55.082;38.772;2022-10-17T03:43:20;101124.22;;;4.01;69.90
71948;BME280;63257;55.082;38.772;2022-10-17T03:45:46;101133.78;;;3.99;69.83
71948;BME280;63257;55.082;38.772;2022-10-17T03:48:18;101125.09;;;3.99;69.32
71948;BME280;63257;55.082;38.772;2022-10-17T03:50:44;101113.78;;;3.97;69.86
71948;BME280;63257;55.082;38.772;2022-10-17T03:53:11;101086.91;;;3.78;69.87
71948;BME280;63257;55.082;38.772;2022-10-17T03:55:37;101113.81;;;3.92;70.17
71948;BME280;63257;55.082;38.772;2022-10-17T03:58:03;101118.19;;;3.88;70.07
71948;BME280;63257;55.082;38.772;2022-10-17T04:00:29;101089.53;;;3.76;70.20
71948;BME280;63257;55.082;38.772;2022-10-17T04:02:57;101134.63;;;4.04;70.12
71948;BME280;63257;55.082;38.772;2022-10-17T04:05:25;101120.69;;;4.07;69.85
71948;BME280;63257;55.082;38.772;2022-10-17T04:07:52;101092.94;;;3.92;71.16
71948;BME280;63257;55.082;38.772;2022-10-17T04:10:42;101055.56;;;3.78;70.42
71948;BME280;63257;55.082;38.772;2022-10-17T04:13:08;101086.75;;;3.99;69.57
71948;BME280;63257;55.082;38.772;2022-10-17T04:15:34;101089.47;;;3.88;69.26
71948;BME280;63257;55.082;38.772;2022-10-17T04:18:00;101129.28;;;4.18;69.30
71948;BME280;63257;55.082;38.772;2022-10-17T04:20:26;101091.09;;;4.02;69.00
71948;BME280;63257;55.082;38.772;2022-10-17T04:23:18;101123.19;;;4.21;68.96
71948;BME280;63257;55.082;38.772;2022-10-17T04:25:44;101054.63;;;3.89;69.24
71948;BME280;63257;55.082;38.772;2022-10-17T04:28:10;101091.84;;;4.15;69.33
71948;BME280;63257;55.082;38.772;2022-10-17T04:30:37;101085.78;;;4.14;68.78
71948;BME280;63257;55.082;38.772;2022-10-17T04:33:04;101100.59;;;4.15;69.12
71948;BME280;63257;55.082;38.772;2022-10-17T04:35:30;101071.06;;;4.05;69.02
71948;BME280;63257;55.082;38.772;2022-10-17T04:38:01;101080.53;;;4.17;69.13
71948;BME280;63257;55.082;38.772;2022-10-17T04:40:27;101067.56;;;4.05;68.32
71948;BME280;63257;55.082;38.772;2022-10-17T04:42:54;101090.06;;;4.24;68.55
71948;BME280;63257;55.082;38.772;2022-10-17T04:45:27;101076.94;;;4.29;68.76
71948;BME280;63257;55.082;38.772;2022-10-17T04:47:58;101091.53;;;4.50;68.30
71948;BME280;63257;55.082;38.772;2022-10-17T04:50:25;101049.09;;;4.27;67.59
71948;BME280;63257;55.082;38.772;2022-10-17T04:53:10;101072.38;;;4.50;67.72
71948;BME280;63257;55.082;38.772;2022-10-17T04:55:37;101070.59;;;4.52;67.62
71948;BME280;63257;55.082;38.772;2022-10-17T04:58:04;101058.47;;;4.46;68.07
71948;BME280;63257;55.082;38.772;2022-10-17T05:00:30;101057.66;;;4.41;67.94
71948;BME280;63257;55.082;38.772;2022-10-17T05:03:16;101061.84;;;4.56;67.64
71948;BME280;63257;55.082;38.772;2022-10-17T05:05:42;101041.84;;;4.53;68.12
71948;BME280;63257;55.082;38.772;2022-10-17T05:08:10;101054.81;;;4.61;67.59
71948;BME280;63257;55.082;38.772;2022-10-17T05:10:37;101020.00;;;4.56;67.61
71948;BME280;63257;55.082;38.772;2022-10-17T05:13:04;101050.34;;;4.74;67.46
71948;BME280;63257;55.082;38.772;2022-10-17T05:15:32;101020.06;;;4.53;67.04
71948;BME280;63257;55.082;38.772;2022-10-17T05:17:58;101044.19;;;4.76;67.03
71948;BME280;63257;55.082;38.772;2022-10-17T05:20:26;101017.41;;;4.57;67.00
71948;BME280;63257;55.082;38.772;2022-10-17T05:22:53;101045.91;;;4.79;66.93
71948;BME280;63257;55.082;38.772;2022-10-17T05:25:20;101009.41;;;4.68;66.74
71948;BME280;63257;55.082;38.772;2022-10-17T05:27:46;101022.34;;;4.79;66.88
71948;BME280;63257;55.082;38.772;2022-10-17T05:30:13;101020.56;;;4.84;66.70
71948;BME280;63257;55.082;38.772;2022-10-17T05:32:39;101030.03;;;4.96;66.31
71948;BME280;63257;55.082;38.772;2022-10-17T05:35:07;101020.56;;;4.84;66.48
71948;BME280;63257;55.082;38.772;2022-10-17T05:37:34;100994.34;;;4.87;66.52
71948;BME280;63257;55.082;38.772;2022-10-17T05:40:02;101025.56;;;5.03;65.65
71948;BME280;63257;55.082;38.772;2022-10-17T05:42:29;101024.56;;;5.12;65.58
71948;BME280;63257;55.082;38.772;2022-10-17T05:44:56;101034.88;;;5.24;65.27
71948;BME280;63257;55.082;38.772;2022-10-17T05:47:24;101004.53;;;5.09;65.42
71948;BME280;63257;55.082;38.772;2022-10-17T05:49:50;101033.19;;;5.20;65.47
71948;BME280;63257;55.082;38.772;2022-10-17T05:52:16;101034.72;;;5.35;64.95
71948;BME280;63257;55.082;38.772;2022-10-17T05:54:55;100987.72;;;5.25;64.65
71948;BME280;63257;55.082;38.772;2022-10-17T05:57:26;101000.50;;;5.47;64.23
71948;BME280;63257;55.082;38.772;2022-10-17T05:59:52;100991.84;;;5.42;63.80
71948;BME280;63257;55.082;38.772;2022-10-17T06:02:19;101033.03;;;5.88;63.75
71948;BME280;63257;55.082;38.772;2022-10-17T06:04:48;100984.53;;;5.64;63.08
71948;BME280;63257;55.082;38.772;2022-10-17T06:07:16;100972.28;;;5.66;63.67
71948;BME280;63257;55.082;38.772;2022-10-17T06:09:43;100980.84;;;5.76;63.50
71948;BME280;63257;55.082;38.772;2022-10-17T06:12:09;100965.19;;;5.71;63.32
71948;BME280;63257;55.082;38.772;2022-10-17T06:14:35;100977.22;;;5.83;63.66
71948;BME280;63257;55.082;38.772;2022-10-17T06:17:04;101019.63;;;6.08;63.49
71948;BME280;63257;55.082;38.772;2022-10-17T06:19:30;100963.19;;;5.87;63.04
71948;BME280;63257;55.082;38.772;2022-10-17T06:22:00;101002.88;;;6.17;63.24
71948;BME280;63257;55.082;38.772;2022-10-17T06:24:27;100951.88;;;5.85;63.02
71948;BME280;63257;55.082;38.772;2022-10-17T06:26:53;100963.09;;;5.93;62.85
71948;BME280;63257;55.082;38.772;2022-10-17T06:29:20;100986.22;;;6.20;63.24
71948;BME280;63257;55.082;38.772;2022-10-17T06:31:49;100954.31;;;5.94;62.93
71948;BME280;63257;55.082;38.772;2022-10-17T06:34:16;100961.31;;;5.94;63.37
71948;BME280;63257;55.082;38.772;2022-10-17T06:36:44;100957.84;;;5.92;63.26
71948;BME280;63257;55.082;38.772;2022-10-17T06:39:10;100967.38;;;5.96;63.32
71948;BME280;63257;55.082;38.772;2022-10-17T06:41:41;101008.84;;;6.25;62.75
71948;BME280;63257;55.082;38.772;2022-10-17T06:44:09;100942.91;;;5.99;62.61
71948;BME280;63257;55.082;38.772;2022-10-17T06:46:54;100948.13;;;6.00;62.47
71948;BME280;63257;55.082;38.772;2022-10-17T06:49:21;100926.31;;;6.00;62.34
71948;BME280;63257;55.082;38.772;2022-10-17T06:51:57;100937.63;;;6.02;62.16
71948;BME280;63257;55.082;38.772;2022-10-17T06:54:55;100924.53;;;6.02;62.44
71948;BME280;63257;55.082;38.772;2022-10-17T06:57:54;100939.31;;;6.06;62.36
71948;BME280;63257;55.082;38.772;2022-10-17T07:00:39;100939.97;;;6.17;62.65
71948;BME280;63257;55.082;38.772;2022-10-17T07:03:05;100920.41;;;6.34;62.09
71948;BME280;63257;55.082;38.772;2022-10-17T07:05:31;100924.28;;;6.58;61.43
71948;BME280;63257;55.082;38.772;2022-10-17T07:07:57;100930.31;;;6.61;61.06
71948;BME280;63257;55.082;38.772;2022-10-17T07:10:23;100911.00;;;6.66;60.59
71948;BME280;63257;55.082;38.772;2022-10-17T07:12:50;100895.84;;;6.80;60.49
71948;BME280;63257;55.082;38.772;2022-10-17T07:15:16;100904.81;;;7.09;59.74
71948;BME280;63257;55.082;38.772;2022-10-17T07:17:47;100926.13;;;7.33;59.17
71948;BME280;63257;55.082;38.772;2022-10-17T07:20:15;100933.59;;;7.48;59.43
71948;BME280;63257;55.082;38.772;2022-10-17T07:22:41;100916.16;;;7.45;59.38
71948;BME280;63257;55.082;38.772;2022-10-17T07:25:07;100926.44;;;7.55;58.24
71948;BME280;63257;55.082;38.772;2022-10-17T07:27:50;100886.81;;;7.64;58.46
71948;BME280;63257;55.082;38.772;2022-10-17T07:30:16;100865.84;;;7.62;57.60
71948;BME280;63257;55.082;38.772;2022-10-17T07:32:58;100869.13;;;7.69;57.71
71948;BME280;63257;55.082;38.772;2022-10-17T07:35:24;100899.16;;;7.93;58.29
71948;BME280;63257;55.082;38.772;2022-10-17T07:37:51;100901.59;;;8.01;58.12
71948;BME280;63257;55.082;38.772;2022-10-17T07:40:18;100906.94;;;8.29;57.36
71948;BME280;63257;55.082;38.772;2022-10-17T07:42:45;100866.13;;;8.16;57.06
71948;BME280;63257;55.082;38.772;2022-10-17T07:45:13;100868.31;;;8.31;57.17
71948;BME280;63257;55.082;38.772;2022-10-17T07:47:42;100868.22;;;8.35;56.53
71948;BME280;63257;55.082;38.772;2022-10-17T07:50:09;100864.47;;;8.42;56.15
71948;BME280;63257;55.082;38.772;2022-10-17T07:52:42;100889.19;;;8.68;56.30
71948;BME280;63257;55.082;38.772;2022-10-17T07:55:08;100866.28;;;8.71;55.77
71948;BME280;63257;55.082;38.772;2022-10-17T07:57:34;100871.06;;;8.87;55.52
71948;BME280;63257;55.082;38.772;2022-10-17T08:00:00;100859.19;;;8.73;55.61
71948;BME280;63257;55.082;38.772;2022-10-17T08:02:28;100823.84;;;8.82;55.25
71948;BME280;63257;55.082;38.772;2022-10-17T08:04:55;100852.41;;;9.21;54.43
71948;BME280;63257;55.082;38.772;2022-10-17T08:07:21;100844.44;;;9.23;54.13
71948;BME280;63257;55.082;38.772;2022-10-17T08:09:47;100862.13;;;9.46;53.96
71948;BME280;63257;55.082;38.772;2022-10-17T08:12:21;100824.38;;;9.19;53.56
71948;BME280;63257;55.082;38.772;2022-10-17T08:14:47;100850.56;;;9.50;53.20
71948;BME280;63257;55.082;38.772;2022-10-17T08:17:13;100837.59;;;9.44;53.19
71948;BME280;63257;55.082;38.772;2022-10-17T08:19:46;100860.56;;;9.40;52.88
71948;BME280;63257;55.082;38.772;2022-10-17T08:22:12;100842.88;;;9.17;53.14
71948;BME280;63257;55.082;38.772;2022-10-17T08:24:38;100817.06;;;9.02;53.21
71948;BME280;63257;55.082;38.772;2022-10-17T08:27:04;100834.38;;;9.09;53.22
71948;BME280;63257;55.082;38.772;2022-10-17T08:29:39;100838.72;;;9.10;53.01
71948;BME280;63257;55.082;38.772;2022-10-17T08:32:06;100863.75;;;9.23;53.37
71948;BME280;63257;55.082;38.772;2022-10-17T08:34:33;100843.38;;;9.28;52.84
71948;BME280;63257;55.082;38.772;2022-10-17T08:36:59;100834.63;;;9.28;53.01
71948;BME280;63257;55.082;38.772;2022-10-17T08:39:25;100801.44;;;9.22;52.98
71948;BME280;63257;55.082;38.772;2022-10-17T08:46:55;100823.06;;;9.57;52.32
71948;BME280;63257;55.082;38.772;2022-10-17T08:49:41;100823.22;;;9.53;52.45
71948;BME280;63257;55.082;38.772;2022-10-17T08:52:18;100839.75;;;9.58;52.75
71948;BME280;63257;55.082;38.772;2022-10-17T08:54:47;100839.22;;;9.73;52.46
71948;BME280;63257;55.082;38.772;2022-10-17T08:57:15;100809.81;;;9.59;52.88
71948;BME280;63257;55.082;38.772;2022-10-17T08:59:44;100825.44;;;9.65;53.47
71948;BME280;63257;55.082;38.772;2022-10-17T09:02:38;100785.25;;;9.58;54.43
71948;BME280;63257;55.082;38.772;2022-10-17T09:08:17;100817.69;;;9.85;54.79
71948;BME280;63257;55.082;38.772;2022-10-17T09:13:53;100765.84;;;9.61;54.90
71948;BME280;63257;55.082;38.772;2022-10-17T09:16:48;100807.91;;;9.88;55.42
71948;BME280;63257;55.082;38.772;2022-10-17T09:19:28;100807.06;;;9.87;55.89
71948;BME280;63257;55.082;38.772;2022-10-17T09:22:13;100802.75;;;9.84;56.29
71948;BME280;63257;55.082;38.772;2022-10-17T09:24:54;100805.41;;;9.84;55.83
71948;BME280;63257;55.082;38.772;2022-10-17T09:27:37;100807.25;;;9.82;56.12
71948;BME280;63257;55.082;38.772;2022-10-17T09:30:28;100778.56;;;9.73;55.68
71948;BME280;63257;55.082;38.772;2022-10-17T09:32:56;100792.53;;;9.77;56.69
71948;BME280;63257;55.082;38.772;2022-10-17T09:35:26;100784.63;;;9.75;55.49
71948;BME280;63257;55.082;38.772;2022-10-17T09:37:54;100797.50;;;9.84;54.70
71948;BME280;63257;55.082;38.772;2022-10-17T09:40:24;100771.38;;;9.78;54.84
71948;BME280;63257;55.082;38.772;2022-10-17T09:42:52;100768.50;;;9.84;53.21
71948;BME280;63257;55.082;38.772;2022-10-17T09:45:22;100766.47;;;9.67;53.16
71948;BME280;63257;55.082;38.772;2022-10-17T09:49:01;100734.16;;;9.62;52.01
71948;BME280;63257;55.082;38.772;2022-10-17T09:51:10;100723.66;;;9.61;52.54
71948;BME280;63257;55.082;38.772;2022-10-17T09:53:50;100724.88;;;9.76;52.92
71948;BME280;63257;55.082;38.772;2022-10-17T09:56:18;100733.13;;;9.66;51.47
71948;BME280;63257;55.082;38.772;2022-10-17T09:58:54;100753.38;;;9.90;51.91
71948;BME280;63257;55.082;38.772;2022-10-17T10:01:30;100739.22;;;9.68;52.25
71948;BME280;63257;55.082;38.772;2022-10-17T10:04:16;100731.78;;;9.55;52.44
71948;BME280;63257;55.082;38.772;2022-10-17T10:07:09;100783.34;;;9.87;52.67
71948;BME280;63257;55.082;38.772;2022-10-17T10:09:37;100718.84;;;9.48;52.35
71948;BME280;63257;55.082;38.772;2022-10-17T10:12:14;100751.56;;;9.66;52.60
71948;BME280;63257;55.082;38.772;2022-10-17T10:14:43;100732.53;;;9.58;53.06
71948;BME280;63257;55.082;38.772;2022-10-17T10:17:43;100763.28;;;9.83;53.10
71948;BME280;63257;55.082;38.772;2022-10-17T10:23:13;100732.38;;;9.63;52.77
71948;BME280;63257;55.082;38.772;2022-10-17T10:28:24;100741.91;;;9.42;56.11
71948;BME280;63257;55.082;38.772;2022-10-17T10:30:52;100736.66;;;9.16;58.08
71948;BME280;63257;55.082;38.772;2022-10-17T10:33:25;100728.84;;;8.88;59.77
71948;BME280;63257;55.082;38.772;2022-10-17T10:36:04;100709.84;;;8.53;62.75
71948;BME280;63257;55.082;38.772;2022-10-17T10:38:32;100697.63;;;8.22;64.19
71948;BME280;63257;55.082;38.772;2022-10-17T10:41:06;100735.97;;;8.29;66.49
71948;BME280;63257;55.082;38.772;2022-10-17T10:43:40;100749.00;;;8.34;67.86
71948;BME280;63257;55.082;38.772;2022-10-17T10:46:24;100713.16;;;8.02;68.48
71948;BME280;63257;55.082;38.772;2022-10-17T10:48:57;100674.38;;;7.80;69.25
71948;BME280;63257;55.082;38.772;2022-10-17T10:51:53;100694.97;;;7.94;71.29
71948;BME280;63257;55.082;38.772;2022-10-17T10:54:25;100716.72;;;7.99;73.20
71948;BME280;63257;55.082;38.772;2022-10-17T10:57:09;100681.72;;;7.69;73.94
71948;BME280;63257;55.082;38.772;2022-10-17T11:00:02;100692.69;;;7.83;73.80
71948;BME280;63257;55.082;38.772;2022-10-17T11:02:37;100637.69;;;7.47;75.20
71948;BME280;63257;55.082;38.772;2022-10-17T11:08:09;100703.22;;;7.81;76.86
71948;BME280;63257;55.082;38.772;2022-10-17T11:10:45;100674.72;;;7.68;75.69
71948;BME280;63257;55.082;38.772;2022-10-17T11:13:26;100658.38;;;7.58;76.41
71948;BME280;63257;55.082;38.772;2022-10-17T11:19:25;100712.84;;;7.82;74.70
71948;BME280;63257;55.082;38.772;2022-10-17T11:24:24;100645.06;;;7.34;73.85
71948;BME280;63257;55.082;38.772;2022-10-17T11:27:05;100656.16;;;7.44;73.74
71948;BME280;63257;55.082;38.772;2022-10-17T11:29:37;100662.84;;;7.56;74.74
71948;BME280;63257;55.082;38.772;2022-10-17T11:34:48;100632.41;;;7.47;74.40
71948;BME280;63257;55.082;38.772;2022-10-17T11:37:25;100660.53;;;7.73;74.89
71948;BME280;63257;55.082;38.772;2022-10-17T11:40:04;100686.34;;;7.90;74.44
71948;BME280;63257;55.082;38.772;2022-10-17T11:42:41;100618.50;;;7.45;75.43
71948;BME280;63257;55.082;38.772;2022-10-17T11:45:14;100640.88;;;7.58;75.43
71948;BME280;63257;55.082;38.772;2022-10-17T11:47:52;100683.97;;;7.81;74.99
71948;BME280;63257;55.082;38.772;2022-10-17T11:50:30;100677.91;;;7.79;74.95
71948;BME280;63257;55.082;38.772;2022-10-17T11:53:23;100686.75;;;7.76;74.67
71948;BME280;63257;55.082;38.772;2022-10-17T11:55:51;100680.91;;;7.67;74.38
71948;BME280;63257;55.082;38.772;2022-10-17T11:59:03;100683.41;;;7.71;74.48
71948;BME280;63257;55.082;38.772;2022-10-17T12:09:31;100647.56;;;7.69;74.60
71948;BME280;63257;55.082;38.772;2022-10-17T12:12:05;100655.22;;;7.76;74.65
71948;BME280;63257;55.082;38.772;2022-10-17T12:14:44;100640.50;;;7.71;74.90
71948;BME280;63257;55.082;38.772;2022-10-17T12:17:31;100648.91;;;7.82;75.03
71948;BME280;63257;55.082;38.772;2022-10-17T12:25:30;100648.28;;;7.74;74.97
71948;BME280;63257;55.082;38.772;2022-10-17T12:30:59;100660.31;;;7.81;75.15
71948;BME280;63257;55.082;38.772;2022-10-17T12:46:45;100637.75;;;8.04;74.53
71948;BME280;63257;55.082;38.772;2022-10-17T12:52:55;100627.06;;;8.08;74.44
71948;BME280;63257;55.082;38.772;2022-10-17T12:55:25;100599.09;;;8.06;74.22
71948;BME280;63257;55.082;38.772;2022-10-17T12:58:03;100615.44;;;8.15;74.01
71948;BME280;63257;55.082;38.772;2022-10-17T13:00:55;100609.31;;;8.15;73.73
71948;BME280;63257;55.082;38.772;2022-10-17T13:03:42;100603.22;;;8.13;73.90
71948;BME280;63257;55.082;38.772;2022-10-17T13:06:29;100619.56;;;8.23;73.81
71948;BME280;63257;55.082;38.772;2022-10-17T13:09:02;100599.53;;;8.20;73.84
71948;BME280;63257;55.082;38.772;2022-10-17T13:11:31;100614.28;;;8.24;73.79
71948;BME280;63257;55.082;38.772;2022-10-17T13:14:01;100617.03;;;8.20;73.94
71948;BME280;63257;55.082;38.772;2022-10-17T13:16:32;100612.56;;;8.23;73.80
71948;BME280;63257;55.082;38.772;2022-10-17T13:19:00;100611.78;;;8.20;73.81
71948;BME280;63257;55.082;38.772;2022-10-17T13:21:26;100601.97;;;8.25;73.59
71948;BME280;63257;55.082;38.772;2022-10-17T13:23:53;100600.25;;;8.24;73.90
71948;BME280;63257;55.082;38.772;2022-10-17T13:26:24;100612.41;;;8.28;73.94
71948;BME280;63257;55.082;38.772;2022-10-17T13:29:12;100613.28;;;8.28;73.96
71948;BME280;63257;55.082;38.772;2022-10-17T13:31:41;100615.03;;;8.28;73.96
71948;BME280;63257;55.082;38.772;2022-10-17T13:34:23;100604.56;;;8.26;74.12
71948;BME280;63257;55.082;38.772;2022-10-17T13:37:02;100603.78;;;8.23;74.04
71948;BME280;63257;55.082;38.772;2022-10-17T13:39:33;100585.44;;;8.21;74.06
71948;BME280;63257;55.082;38.772;2022-10-17T13:42:00;100609.03;;;8.24;74.44
71948;BME280;63257;55.082;38.772;2022-10-17T13:44:31;100578.56;;;8.17;74.23
71948;BME280;63257;55.082;38.772;2022-10-17T13:46:58;100597.50;;;8.28;74.56
71948;BME280;63257;55.082;38.772;2022-10-17T13:49:33;100604.56;;;8.26;74.36
71948;BME280;63257;55.082;38.772;2022-10-17T13:52:06;100600.91;;;8.30;74.56
71948;BME280;63257;55.082;38.772;2022-10-17T13:54:41;100606.19;;;8.30;74.28
71948;BME280;63257;55.082;38.772;2022-10-17T13:57:28;100590.34;;;8.32;74.42
71948;BME280;63257;55.082;38.772;2022-10-17T13:59:59;100581.84;;;8.24;74.68
71948;BME280;63257;55.082;38.772;2022-10-17T14:02:31;100595.81;;;8.26;74.47
71948;BME280;63257;55.082;38.772;2022-10-17T14:05:18;100597.53;;;8.27;74.88
71948;BME280;63257;55.082;38.772;2022-10-17T14:07:56;100596.56;;;8.29;74.58
71948;BME280;63257;55.082;38.772;2022-10-17T14:10:36;100543.50;;;7.91;74.80
71948;BME280;63257;55.082;38.772;2022-10-17T14:13:05;100597.97;;;8.13;75.28
71948;BME280;63257;55.082;38.772;2022-10-17T14:15:34;100590.81;;;8.18;75.29
71948;BME280;63257;55.082;38.772;2022-10-17T14:18:03;100600.31;;;8.22;75.85
71948;BME280;63257;55.082;38.772;2022-10-17T14:20:30;100598.41;;;8.27;75.59
71948;BME280;63257;55.082;38.772;2022-10-17T14:22:58;100595.81;;;8.26;75.59
71948;BME280;63257;55.082;38.772;2022-10-17T14:25:44;100576.75;;;8.19;75.49
71948;BME280;63257;55.082;38.772;2022-10-17T14:30:38;100566.28;;;8.18;76.16
71948;BME280;63257;55.082;38.772;2022-10-17T14:33:33;100556.38;;;7.99;76.87
71948;BME280;63257;55.082;38.772;2022-10-17T14:35:59;100575.31;;;8.09;76.60
71948;BME280;63257;55.082;38.772;2022-10-17T14:38:26;100591.22;;;8.06;76.60
71948;BME280;63257;55.082;38.772;2022-10-17T14:41:22;100582.41;;;8.07;76.64
71948;BME280;63257;55.082;38.772;2022-10-17T14:43:58;100530.88;;;7.74;76.65
71948;BME280;63257;55.082;38.772;2022-10-17T14:46:28;100592.88;;;8.08;76.45
71948;BME280;63257;55.082;38.772;2022-10-17T14:49:04;100587.84;;;8.01;76.69
71948;BME280;63257;55.082;38.772;2022-10-17T14:55:55;100648.03;;;8.10;76.32
71948;BME280;63257;55.082;38.772;2022-10-17T14:58:27;100675.00;;;8.17;76.66
71948;BME280;63257;55.082;38.772;2022-10-17T15:00:54;100660.84;;;8.21;76.47
71948;BME280;63257;55.082;38.772;2022-10-17T15:03:20;100660.13;;;8.15;76.48
71948;BME280;63257;55.082;38.772;2022-10-17T15:05:47;100669.59;;;8.21;76.30
71948;BME280;63257;55.082;38.772;2022-10-17T15:08:15;100660.78;;;8.22;76.33
71948;BME280;63257;55.082;38.772;2022-10-17T15:10:44;100662.66;;;8.19;76.71
71948;BME280;63257;55.082;38.772;2022-10-17T15:13:10;100655.69;;;8.18;76.98
71948;BME280;63257;55.082;38.772;2022-10-17T15:15:38;100665.16;;;8.23;77.00
71948;BME280;63257;55.082;38.772;2022-10-17T15:18:05;100664.53;;;8.15;77.20
71948;BME280;63257;55.082;38.772;2022-10-17T15:20:33;100666.41;;;8.11;77.48
71948;BME280;63257;55.082;38.772;2022-10-17T15:23:00;100679.38;;;8.18;77.43
71948;BME280;63257;55.082;38.772;2022-10-17T15:25:28;100683.91;;;8.12;77.44
71948;BME280;63257;55.082;38.772;2022-10-17T15:27:54;100685.31;;;8.23;77.58
71948;BME280;63257;55.082;38.772;2022-10-17T15:30:26;100657.41;;;8.19;77.42
71948;BME280;63257;55.082;38.772;2022-10-17T15:32:53;100660.91;;;8.19;77.70
71948;BME280;63257;55.082;38.772;2022-10-17T15:35:20;100674.16;;;8.16;77.54
71948;BME280;63257;55.082;38.772;2022-10-17T15:37:46;100672.44;;;8.15;77.59
71948;BME280;63257;55.082;38.772;2022-10-17T15:40:18;100671.38;;;8.21;77.53
71948;BME280;63257;55.082;38.772;2022-10-17T15:42:44;100672.22;;;8.21;77.15